createdAt,value
2023-12-20T07:41:22.455Z,-4.98
2023-12-20T07:43:50.611Z,-4.90
2023-12-20T07:46:20.216Z,-4.70
2023-12-20T07:48:48.506Z,-4.44
2023-12-20T07:51:17.366Z,-4.26
2023-12-20T07:53:45.560Z,-3.72
2023-12-20T07:56:17.719Z,-3.00
2023-12-20T07:58:52.107Z,-2.70
2023-12-20T08:01:22.768Z,-2.82
2023-12-20T08:03:52.358Z,-2.94
2023-12-20T08:06:20.995Z,-3.06
2023-12-20T08:08:55.542Z,-3.00
2023-12-20T08:11:30.771Z,-2.90
2023-12-20T08:13:59.675Z,-2.80
2023-12-20T08:16:28.195Z,-2.78
2023-12-20T08:18:56.794Z,-2.82
2023-12-20T08:21:25.112Z,-2.80
2023-12-20T08:23:53.396Z,-2.82
2023-12-20T08:26:22.799Z,-2.82
2023-12-20T08:28:51.443Z,-2.80
2023-12-20T08:31:19.883Z,-2.90
2023-12-20T08:33:49.366Z,-2.82
2023-12-20T08:36:19.171Z,-2.80
2023-12-20T08:38:47.232Z,-2.80
2023-12-20T08:41:15.596Z,-2.70
2023-12-20T08:43:43.762Z,-2.60
2023-12-20T08:46:12.901Z,-2.50
2023-12-20T08:48:41.426Z,-2.60
2023-12-20T08:51:10.749Z,-2.60
2023-12-20T08:53:39.509Z,-2.50
2023-12-20T08:56:08.111Z,-2.50
2023-12-20T08:58:38.916Z,-2.56
2023-12-20T09:01:07.145Z,-2.44
2023-12-20T09:03:35.351Z,-2.30
2023-12-20T09:06:03.599Z,-2.50
2023-12-20T09:08:31.765Z,-2.30
2023-12-20T09:11:00.208Z,-2.26
2023-12-20T09:13:30.036Z,-2.00
2023-12-20T09:18:40.466Z,-1.50
2023-12-20T09:21:08.692Z,-1.20
2023-12-20T09:23:38.160Z,-1.20
2023-12-20T09:26:06.329Z,-1.10
2023-12-20T09:28:38.384Z,-1.30
2023-12-20T09:31:07.039Z,-1.12
2023-12-20T09:33:35.395Z,-1.10
2023-12-20T09:36:03.808Z,-1.04
2023-12-20T09:38:32.298Z,-1.00
2023-12-20T09:41:00.550Z,-1.00
2023-12-20T09:43:31.010Z,-1.16
2023-12-20T09:46:01.585Z,-1.00
2023-12-20T09:48:29.671Z,-1.00
2023-12-20T09:50:57.745Z,-0.90
2023-12-20T09:53:30.367Z,-1.00
2023-12-20T09:56:00.309Z,-0.90
2023-12-20T09:58:28.661Z,-1.00
2023-12-20T10:00:57.042Z,-0.84
2023-12-20T10:03:27.526Z,-0.86
2023-12-20T10:05:56.422Z,-0.66
2023-12-20T10:08:25.399Z,-0.60
2023-12-20T10:10:53.798Z,-0.60
2023-12-20T10:13:22.112Z,-0.60
2023-12-20T10:15:50.954Z,-0.48
2023-12-20T10:18:19.490Z,-0.30
2023-12-20T10:20:48.218Z,-0.26
2023-12-20T10:23:16.836Z,-0.18
2023-12-20T10:25:44.959Z,-0.20
2023-12-20T10:28:22.324Z,-0.14
2023-12-20T10:30:50.917Z,-0.14
2023-12-20T10:33:30.078Z,-0.10
2023-12-20T10:35:58.382Z,0.10
2023-12-20T10:38:26.666Z,0.10
2023-12-20T10:40:56.225Z,0.00
2023-12-20T10:43:27.650Z,0.06
2023-12-20T10:45:56.252Z,0.12
2023-12-20T10:48:30.738Z,0.10
2023-12-20T10:50:59.477Z,0.18
2023-12-20T10:53:27.759Z,0.30
2023-12-20T10:55:57.937Z,0.14
2023-12-20T10:58:26.237Z,0.30
2023-12-20T11:00:59.870Z,0.40
2023-12-20T11:03:28.211Z,0.40
2023-12-20T11:06:01.350Z,0.54
2023-12-20T11:08:55.960Z,0.50
2023-12-20T11:11:57.480Z,0.50
2023-12-20T11:14:29.059Z,0.66
2023-12-20T11:17:07.724Z,0.60
2023-12-20T11:19:44.927Z,0.60
2023-12-20T11:22:13.196Z,0.74
2023-12-20T11:24:45.653Z,0.78
2023-12-20T11:27:16.881Z,0.80
2023-12-20T11:29:46.807Z,0.90
2023-12-20T11:32:30.152Z,0.98
2023-12-20T11:35:07.682Z,1.00
2023-12-20T11:37:39.784Z,0.90
2023-12-20T11:40:10.648Z,0.90
2023-12-20T11:42:39.651Z,0.90
2023-12-20T11:45:23.389Z,1.00
2023-12-20T11:47:52.525Z,1.10
2023-12-20T11:50:21.350Z,1.14
2023-12-20T11:52:50.322Z,1.10
2023-12-20T11:55:18.564Z,0.96
2023-12-20T11:57:49.298Z,1.10
2023-12-20T12:00:18.020Z,1.20
2023-12-20T12:02:56.700Z,1.30
2023-12-20T12:05:24.963Z,1.40
2023-12-20T12:07:53.409Z,1.50
2023-12-20T12:10:21.997Z,1.50
2023-12-20T12:12:50.109Z,1.60
2023-12-20T12:15:18.229Z,1.64
2023-12-20T12:17:54.554Z,1.72
2023-12-20T12:20:22.927Z,2.92
2023-12-20T12:23:02.859Z,3.40
2023-12-20T12:25:32.316Z,4.24
2023-12-20T12:28:01.121Z,4.78
2023-12-20T12:30:35.273Z,4.60
2023-12-20T12:33:07.278Z,4.50
2023-12-20T12:35:36.127Z,4.40
2023-12-20T12:38:04.483Z,4.20
2023-12-20T12:40:35.963Z,4.00
2023-12-20T12:43:05.692Z,3.74
2023-12-20T12:45:33.994Z,3.34
2023-12-20T12:48:02.133Z,3.16
2023-12-20T12:50:30.704Z,2.90
2023-12-20T12:52:58.940Z,2.80
2023-12-20T12:55:27.238Z,2.60
2023-12-20T12:57:55.882Z,2.52
2023-12-20T13:00:24.380Z,2.40
2023-12-20T13:02:52.854Z,2.30
2023-12-20T13:05:21.165Z,2.30
2023-12-20T13:07:49.825Z,2.20
2023-12-20T13:10:18.476Z,2.14
2023-12-20T13:12:47.301Z,2.00
2023-12-20T13:15:15.859Z,1.80
2023-12-20T13:17:44.230Z,1.84
2023-12-20T13:20:12.559Z,1.80
2023-12-20T13:22:40.726Z,1.78
2023-12-20T13:25:09.118Z,1.64
2023-12-20T13:27:37.183Z,1.70
2023-12-20T13:30:06.702Z,1.78
2023-12-20T13:32:35.070Z,1.80
2023-12-20T13:35:05.382Z,1.80
2023-12-20T13:37:33.628Z,1.80
2023-12-20T13:40:03.056Z,1.90
2023-12-20T13:42:31.267Z,1.88
2023-12-20T13:45:00.268Z,1.86
2023-12-20T13:47:28.482Z,1.90
2023-12-20T13:49:57.452Z,1.80
2023-12-20T13:52:25.657Z,1.78
2023-12-20T13:54:53.981Z,1.70
2023-12-20T13:57:31.807Z,1.70
2023-12-20T14:00:15.311Z,1.60
2023-12-20T14:02:43.762Z,1.50
2023-12-20T14:05:12.231Z,1.50
2023-12-20T14:07:40.715Z,1.40
2023-12-20T14:10:09.283Z,1.40
2023-12-20T14:12:39.184Z,1.30
2023-12-20T14:15:12.349Z,1.26
2023-12-20T14:17:41.328Z,1.10
2023-12-20T14:20:09.804Z,1.02
2023-12-20T14:22:39.957Z,1.00
2023-12-20T14:25:09.751Z,1.00
2023-12-20T14:27:37.974Z,0.92
2023-12-20T14:30:06.682Z,0.90
2023-12-20T14:32:35.958Z,0.80
2023-12-20T14:35:05.664Z,0.78
2023-12-20T14:37:33.947Z,0.70
2023-12-20T14:40:02.552Z,0.60
2023-12-20T14:42:30.997Z,0.60
2023-12-20T14:44:59.219Z,0.54
2023-12-20T14:47:27.264Z,0.50
2023-12-20T14:49:55.470Z,0.54
2023-12-20T14:52:24.484Z,0.40
2023-12-20T14:54:52.640Z,0.40
2023-12-20T14:57:20.812Z,0.40
2023-12-20T14:59:48.861Z,0.38
2023-12-20T15:02:17.094Z,0.30
2023-12-20T15:04:45.268Z,0.30
2023-12-20T15:07:13.431Z,0.24
2023-12-20T15:09:47.058Z,0.20
2023-12-20T15:12:15.198Z,0.30
2023-12-20T15:14:43.311Z,0.30
2023-12-20T15:17:11.589Z,0.40
2023-12-20T15:19:39.658Z,0.40
2023-12-20T15:22:10.413Z,0.40
2023-12-20T15:24:43.597Z,0.50
2023-12-20T15:27:14.252Z,0.60
2023-12-20T15:29:42.524Z,0.60
2023-12-20T15:32:10.573Z,0.58
2023-12-20T15:34:38.788Z,0.70
2023-12-20T15:37:07.342Z,0.70
2023-12-20T15:39:35.552Z,0.70
2023-12-20T15:42:04.137Z,0.80
2023-12-20T15:44:32.278Z,0.80
2023-12-20T15:47:00.548Z,0.90
2023-12-20T15:49:28.720Z,0.80
2023-12-20T15:51:56.992Z,0.80
2023-12-20T15:54:26.280Z,0.80
2023-12-20T15:56:54.407Z,0.90
2023-12-20T15:59:22.436Z,0.98
2023-12-20T16:01:54.180Z,1.00
2023-12-20T16:04:23.195Z,1.10
2023-12-20T16:06:51.498Z,1.10
2023-12-20T16:09:19.638Z,1.10
2023-12-20T16:11:47.722Z,1.00
2023-12-20T16:14:18.780Z,1.02
2023-12-20T16:16:50.428Z,1.00
2023-12-20T16:19:18.948Z,1.10
2023-12-20T16:21:47.210Z,1.10
2023-12-20T16:24:15.404Z,1.12
2023-12-20T16:26:43.494Z,1.20
2023-12-20T16:29:13.360Z,1.30
2023-12-20T16:31:41.458Z,1.30
2023-12-20T16:34:10.497Z,1.42
2023-12-20T16:36:55.804Z,1.40
2023-12-20T16:39:24.956Z,1.34
2023-12-20T16:41:53.408Z,1.32
2023-12-20T16:44:21.559Z,1.20
2023-12-20T16:46:50.260Z,1.20
2023-12-20T16:49:18.531Z,1.12
2023-12-20T16:51:46.702Z,1.10
2023-12-20T16:54:14.794Z,1.00
2023-12-20T16:56:42.847Z,1.04
2023-12-20T16:59:11.022Z,1.00
2023-12-20T17:01:39.272Z,1.00
2023-12-20T17:04:07.610Z,1.00
2023-12-20T17:06:35.845Z,1.00
2023-12-20T17:09:04.086Z,0.90
2023-12-20T17:11:32.416Z,0.94
2023-12-20T17:14:01.140Z,0.90
2023-12-20T17:16:29.338Z,0.90
2023-12-20T17:18:57.590Z,0.90
2023-12-20T17:21:25.819Z,0.70
2023-12-20T17:23:53.887Z,0.60
2023-12-20T17:26:22.630Z,0.60
2023-12-20T17:28:50.675Z,0.60
2023-12-20T17:31:18.866Z,0.64
2023-12-20T17:33:47.139Z,0.60
2023-12-20T17:36:18.167Z,0.54
2023-12-20T17:38:46.507Z,0.60
2023-12-20T17:41:14.601Z,0.60
2023-12-20T17:43:43.545Z,0.60
2023-12-20T17:46:11.748Z,0.60
2023-12-20T17:48:39.826Z,0.68
2023-12-20T17:51:07.920Z,0.70
2023-12-20T17:53:36.123Z,0.76
2023-12-20T17:56:04.386Z,0.66
2023-12-20T17:58:32.490Z,0.60
2023-12-20T18:01:00.642Z,0.62
2023-12-20T18:03:28.793Z,0.70
2023-12-20T18:05:56.941Z,0.70
2023-12-20T18:08:26.047Z,0.70
2023-12-20T18:10:54.327Z,0.80
2023-12-20T18:13:22.487Z,0.80
2023-12-20T18:15:50.751Z,0.80
2023-12-20T18:18:18.971Z,0.78
2023-12-20T18:20:47.691Z,0.70
2023-12-20T18:23:16.192Z,0.70
2023-12-20T18:25:44.236Z,0.66
2023-12-20T18:28:12.328Z,0.60
2023-12-20T18:30:40.849Z,0.68
2023-12-20T18:33:09.030Z,0.70
2023-12-20T18:35:38.711Z,0.70
2023-12-20T18:38:07.145Z,0.70
2023-12-20T18:40:35.413Z,0.64
2023-12-20T18:43:05.149Z,0.60
2023-12-20T18:45:33.420Z,0.54
2023-12-20T18:48:01.520Z,0.48
2023-12-20T18:50:30.918Z,0.42
2023-12-20T18:52:59.200Z,0.40
2023-12-20T18:55:27.354Z,0.40
2023-12-20T18:57:55.481Z,0.40
2023-12-20T19:00:23.721Z,0.50
2023-12-20T19:02:52.063Z,0.50
2023-12-20T19:05:20.630Z,0.40
2023-12-20T19:07:50.228Z,0.40
2023-12-20T19:10:18.550Z,0.34
2023-12-20T19:12:46.623Z,0.30
2023-12-20T19:15:14.844Z,0.30
2023-12-20T19:17:43.205Z,0.30
2023-12-20T19:20:11.524Z,0.30
2023-12-20T19:22:40.700Z,0.38
2023-12-20T19:25:10.442Z,0.40
2023-12-20T19:27:38.828Z,0.32
2023-12-20T19:30:07.847Z,0.50
2023-12-20T19:32:36.137Z,0.60
2023-12-20T19:35:04.668Z,0.60
2023-12-20T19:37:33.165Z,0.60
2023-12-20T19:40:01.346Z,0.66
2023-12-20T19:42:31.685Z,0.60
2023-12-20T19:44:59.954Z,0.68
2023-12-20T19:47:28.834Z,0.62
2023-12-20T19:49:57.649Z,0.70
2023-12-20T19:52:25.983Z,0.70
2023-12-20T19:54:54.309Z,0.80
2023-12-20T19:57:25.236Z,0.86
2023-12-20T19:59:53.383Z,0.90
2023-12-20T20:02:21.610Z,1.00
2023-12-20T20:04:49.891Z,1.00
2023-12-20T20:07:20.947Z,1.08
2023-12-20T20:09:49.107Z,1.10
2023-12-20T20:12:17.426Z,1.20
2023-12-20T20:14:45.603Z,1.08
2023-12-20T20:17:13.792Z,1.00
2023-12-20T20:19:42.777Z,1.10
2023-12-20T20:22:12.954Z,1.30
2023-12-20T20:24:41.941Z,1.42
2023-12-20T20:27:10.377Z,1.58
2023-12-20T20:29:38.478Z,1.70
2023-12-20T20:32:07.380Z,1.80
2023-12-20T20:34:35.762Z,1.90
2023-12-20T20:37:04.142Z,2.00
2023-12-20T20:39:32.160Z,2.12
2023-12-20T20:42:00.352Z,2.20
2023-12-20T20:44:28.720Z,2.22
2023-12-20T20:46:56.898Z,2.22
2023-12-20T20:49:26.018Z,2.24
2023-12-20T20:51:54.549Z,2.30
2023-12-20T20:54:22.573Z,2.30
2023-12-20T20:56:50.671Z,2.30
2023-12-20T20:59:18.892Z,2.32
2023-12-20T21:01:47.064Z,2.36
2023-12-20T21:04:16.916Z,2.40
2023-12-20T21:06:45.332Z,2.40
2023-12-20T21:09:13.360Z,2.32
2023-12-20T21:11:41.456Z,2.40
2023-12-20T21:14:09.621Z,2.40
2023-12-20T21:16:37.872Z,2.48
2023-12-20T21:19:07.636Z,2.50
2023-12-20T21:21:36.802Z,2.30
2023-12-20T21:24:05.122Z,2.10
2023-12-20T21:26:33.192Z,2.00
2023-12-20T21:29:01.240Z,2.00
2023-12-20T21:31:32.101Z,1.90
2023-12-20T21:34:00.399Z,1.86
2023-12-20T21:36:28.820Z,1.62
2023-12-20T21:38:56.907Z,1.50
2023-12-20T21:41:25.020Z,1.50
2023-12-20T21:43:54.335Z,1.56
2023-12-20T21:46:22.599Z,1.70
2023-12-20T21:48:50.996Z,1.80
2023-12-20T21:51:19.830Z,1.90
2023-12-20T21:53:48.144Z,2.00
2023-12-20T21:56:16.309Z,2.06
2023-12-20T21:58:45.917Z,2.04
2023-12-20T22:01:14.487Z,2.10
2023-12-20T22:03:42.962Z,2.10
2023-12-20T22:06:11.264Z,2.20
2023-12-20T22:08:39.817Z,2.20
2023-12-20T22:11:09.214Z,2.22
2023-12-20T22:13:37.532Z,2.16
2023-12-20T22:16:06.394Z,1.98
2023-12-20T22:18:34.841Z,1.80
2023-12-20T22:21:03.614Z,1.70
2023-12-20T22:23:31.681Z,1.70
2023-12-20T22:25:59.823Z,1.60
2023-12-20T22:28:28.132Z,1.50
2023-12-20T22:30:56.263Z,1.30
2023-12-20T22:33:26.377Z,1.10
2023-12-20T22:35:54.367Z,1.00
2023-12-20T22:38:22.496Z,0.88
2023-12-20T22:40:50.615Z,0.80
2023-12-20T22:43:18.744Z,0.70
2023-12-20T22:45:46.921Z,0.70
2023-12-20T22:48:15.079Z,0.70
2023-12-20T22:50:43.333Z,0.78
2023-12-20T22:53:11.372Z,0.80
2023-12-20T22:55:39.621Z,0.80
2023-12-20T22:58:08.844Z,0.70
2023-12-20T23:00:37.041Z,0.60
2023-12-20T23:03:05.478Z,0.42
2023-12-20T23:05:33.819Z,0.30
2023-12-20T23:08:02.036Z,0.30
2023-12-20T23:10:31.480Z,0.30
2023-12-20T23:12:59.969Z,0.40
2023-12-20T23:15:28.598Z,0.50
2023-12-20T23:17:58.316Z,0.60
2023-12-20T23:20:26.723Z,0.68
2023-12-20T23:22:54.937Z,0.70
2023-12-20T23:25:24.105Z,0.80
2023-12-20T23:27:54.541Z,0.88
2023-12-20T23:30:22.813Z,0.90
2023-12-20T23:32:51.098Z,0.96
2023-12-20T23:35:19.738Z,0.96
2023-12-20T23:37:48.291Z,0.84
2023-12-20T23:40:16.690Z,0.90
2023-12-20T23:42:44.764Z,0.80
2023-12-20T23:45:13.272Z,0.80
2023-12-20T23:47:41.422Z,0.70
2023-12-20T23:50:10.307Z,0.66
2023-12-20T23:52:38.586Z,0.60
2023-12-20T23:55:08.014Z,0.44
2023-12-20T23:57:36.418Z,0.40
